< < Back
Terminal Aerodrome Forecast


Current Version              Previous Versions:   1  2  3  4  5  6  7  8  9  

Terminal Aerodrome Forecast

098
FTUS44 KOHX 250200 AAA
TAFBNA
TAF AMD
KBNA 250300Z 2503/2524 18010KT P6SM SCT080 BKN250
     FM250400 17012KT P6SM VCSH BKN050CB OVC120
      TEMPO 2504/2507 2SM TSRA OVC040CB
     FM250700 22012G22KT P6SM VCSH OVC015
     FM251400 30012G20KT P6SM BKN020
     FM251800 32015G22KT P6SM SCT045=

Latest METAR

849
SAUS70 KWBC 250300 RRN
MTRBNA
METAR KBNA 250253Z 17011KT 10SM OVC220 22/11 A2975 RMK AO2 SLP070
T02170106 58016


USA.gov is the U.S. government's official web portal to all federal, state and local government web resources and services.